• Join FlightAware (Why Join?)
  • Login
  • US Flag 
10:19PM EDT


 

Airport Tracker/Info


-or-


 

Live Flight TrackerFlight Track Log ✈ N789EX ✈ 23-Nov-2013 ✈ KBFI - KMWH

Flight Track Log - Related Links

Times and Time Zones

All times are in EST time to prevent confusion due to time zone crossing. See the N789EX flight status page for this flight to view local times or setup timezone preferences in your user account.

Time Position Orientation Groundspeed Altitude Reporting Facility
EST Latitude Longitude Course Direction KTS MPH feet Rate Location/Type
01:38PM 47.5428 -122.3133 329° Northwest 174 200 1,300  Level Seattle Center
01:38PM 47.5603 -122.3292 329° Northwest 182 209 1,900 1,500 Climbing Seattle Center
01:38PM 47.5778 -122.3467 326° Northwest 228 262 2,400 3,240 Climbing Seattle Center
01:39PM 47.6142 -122.3947 318° Northwest 253 291 5,200 4,020 Climbing Seattle Center
01:39PM 47.6214 -122.4311 286° West 286 329 6,500 3,540 Climbing Seattle Center
01:40PM 47.6458 -122.5047 296° West 277 319 8,800 2,580 Climbing Seattle Center
01:40PM 47.6581 -122.5158 329° Northwest 285 328 8,900 780 Climbing Seattle Center
01:41PM 47.7200 -122.5011 North 285 328 9,600 1,560 Climbing Seattle Center
01:41PM 47.7275 -122.4647 73° East 303 349 10,700 2,700 Climbing Seattle Center
01:42PM 47.7028 -122.3803 113° Southeast 336 387 12,400 2,460 Climbing Seattle Center
01:43PM 47.6606 -122.2664 119° Southeast 325 374 15,000 1,260 Climbing Seattle Center
01:44PM 47.6142 -122.1508 121° Southeast 328 377 15,000  Level Seattle Center
01:45PM 47.5653 -122.0386 123° Southeast 325 374 15,000  Level Seattle Center
01:46PM 47.5108 -121.9036 121° Southeast 354 407 15,000  Level Seattle Center
01:47PM 47.4597 -121.7906 124° Southeast 335 386 15,000  Level Seattle Center
01:48PM 47.4239 -121.6614 112° Southeast 352 405 15,000  Level Seattle Center
01:49PM 47.4400 -121.5272 80° East 337 388 15,000  Level Seattle Center
01:50PM 47.4447 -121.3769 87° East 383 441 15,000  Level Seattle Center
01:51PM 47.4322 -121.2042 96° East 439 505 15,000  Level Seattle Center
01:52PM 47.4192 -121.0303 96° East 420 483 15,000 -60 Level Seattle Center
01:53PM 47.4031 -120.8911 100° East 343 395 14,900  Descending Seattle Center
01:54PM 47.3411 -120.7769 129° Southeast 357 411 15,100  Climbing Seattle Center
01:55PM 47.3442 -120.6256 88° East 401 461 14,900 60 Descending Seattle Center
01:56PM 47.3503 -120.4858 86° East 424 488 15,300 240 Climbing Seattle Center
01:57PM 47.3550 -120.2894 88° East 407 468 15,400  Climbing Seattle Center
01:58PM 47.3228 -120.1314 107° East 400 460 15,400 -60 Level Seattle Center
01:59PM 47.2789 -119.9956 115° Southeast 377 434 15,300 -300 Descending Seattle Center
02:00PM 47.2408 -119.8511 111° Southeast 384 442 14,800 -360 Descending Seattle Center
02:01PM 47.1928 -119.7044 116° Southeast 379 436 14,600 -120 Descending Seattle Center
02:02PM 47.1839 -119.5736 96° East 319 367 14,600  Level Seattle Center
02:04PM 47.1808 -119.4539 92° East 298 343 14,600 -60 Level Seattle Center
02:05PM 47.1786 -119.3406 92° East 297 342 14,500 -60 Descending Seattle Center
02:06PM 47.1769 -119.2031 91° East 301 346 14,500  Level Seattle Center
02:07PM 47.1742 -119.0819 92° East 299 344 14,500  Level Seattle Center
02:08PM 47.1703 -118.9500 92° East 300 345 14,500 -60 Level Seattle Center
02:09PM 47.1683 -118.8583 92° East 275 316 14,400  Descending Seattle Center
02:10PM 47.1658 -118.7303 92° East 263 303 14,500  Climbing Seattle Center
02:11PM 47.1764 -118.6378 80° East 221 254 14,400  Descending Seattle Center
02:12PM 47.2239 -118.6544 347° North 183 211 14,500  Climbing Seattle Center
02:13PM 47.2639 -118.6947 326° Northwest 177 204 14,400 -480 Descending Seattle Center
02:14PM 47.3014 -118.7344 324° Northwest 172 198 13,600 -540 Descending Seattle Center
02:15PM 47.3583 -118.7786 332° Northwest 227 261 13,400 -120 Descending Seattle Center
02:16PM 47.3522 -118.8431 262° West 203 234 13,400 -60 Level Seattle Center
02:17PM 47.3094 -118.8967 220° Southwest 202 232 13,300  Descending Seattle Center
02:18PM 47.2619 -118.9558 220° Southwest 199 229 13,400  Climbing Seattle Center
02:19PM 47.2200 -119.0083 220° Southwest 199 229 13,400  Level Seattle Center
02:20PM 47.1736 -119.0647 220° Southwest 201 231 13,400 -60 Level Seattle Center
02:21PM 47.1275 -119.1122 215° Southwest 202 232 13,300  Descending Seattle Center
02:22PM 47.0822 -119.1633 218° Southwest 205 236 13,400  Climbing Seattle Center
02:23PM 47.0239 -119.2286 217° Southwest 263 303 13,400 -540 Level Seattle Center
02:24PM 46.9733 -119.2478 195° South 183 211 12,400 -480 Descending Seattle Center
02:25PM 46.9236 -119.2536 185° South 182 209 12,500 -600 Climbing Seattle Center
02:26PM 46.8733 -119.2606 185° South 186 214 11,300 -1,680 Descending Seattle Center
02:27PM 46.8206 -119.2669 185° South 191 220 9,200 -1,920 Descending Seattle Center
02:28PM 46.8242 -119.2219 83° East 192 221 7,500 -1,200 Descending Seattle Center
02:29PM 46.8722 -119.2264 356° North 188 216 6,800 -720 Descending Seattle Center
02:31PM 46.9797 -119.2559 349° North  Level Estimated